createdAt,value
2023-05-05T00:01:10.979Z,66.95
2023-05-05T00:11:13.346Z,67.63
2023-05-05T00:21:16.002Z,68.35
2023-05-05T00:31:18.495Z,68.25
2023-05-05T00:41:20.851Z,67.15
2023-05-05T00:51:24.340Z,67.73
2023-05-05T01:01:26.641Z,67.67
2023-05-05T01:11:41.038Z,67.96
2023-05-05T01:21:56.307Z,68.37
2023-05-05T05:05:11.209Z,71.32
2023-05-05T05:15:13.674Z,68.02
2023-05-05T05:25:16.354Z,64.89
2023-05-05T05:35:18.668Z,63.19
2023-05-05T05:45:21.943Z,62.65
2023-05-05T05:55:24.263Z,59.75
2023-05-05T06:05:27.177Z,57.29
2023-05-05T06:15:29.546Z,56.22
2023-05-05T06:25:31.870Z,57.08
2023-05-05T06:35:34.232Z,52.96
2023-05-05T06:45:36.558Z,51.89
2023-05-05T06:55:38.966Z,48.59
2023-05-05T07:05:41.258Z,44.86
2023-05-05T07:15:46.935Z,45.34
2023-05-05T07:25:49.319Z,33.54
2023-05-05T07:35:51.794Z,28.28
2023-05-05T07:45:54.290Z,23.68
2023-05-05T07:55:56.641Z,19.63
2023-05-05T08:06:08.790Z,21.23
2023-05-05T08:16:11.867Z,24.88
2023-05-05T08:26:14.175Z,27.24
2023-05-05T08:36:16.534Z,28.77
2023-05-05T08:46:18.913Z,29.61
2023-05-05T08:56:24.808Z,31.53
2023-05-05T09:06:27.681Z,29.84
2023-05-05T09:16:30.092Z,31.99
2023-05-05T09:26:34.613Z,29.92
2023-05-05T09:36:43.789Z,29.19
2023-05-05T09:46:53.053Z,29.99
2023-05-05T09:56:57.036Z,29.13
2023-05-05T10:06:59.486Z,28.69
2023-05-05T10:17:02.428Z,27.57
2023-05-05T10:27:12.727Z,27.16
2023-05-05T10:37:17.074Z,28.61
2023-05-05T10:47:21.850Z,27.70
2023-05-05T10:57:28.890Z,27.09
2023-05-05T11:07:31.852Z,28.99
2023-05-05T11:17:47.935Z,28.04
2023-05-05T11:28:09.828Z,27.19
2023-05-05T11:38:14.958Z,25.44
2023-05-05T11:48:27.430Z,26.33
2023-05-05T11:58:29.778Z,26.03
2023-05-05T12:08:39.112Z,25.78
2023-05-05T12:18:42.114Z,26.68
2023-05-05T12:28:48.166Z,26.88
2023-05-05T12:38:50.583Z,27.20
2023-05-05T12:49:07.041Z,29.10
2023-05-05T12:59:12.182Z,27.46
2023-05-05T13:09:28.075Z,28.70
2023-05-05T13:19:30.848Z,28.07
2023-05-05T13:29:33.819Z,28.46
2023-05-05T13:39:37.177Z,29.20
2023-05-05T13:49:39.537Z,28.79
2023-05-05T13:59:41.871Z,30.21
2023-05-05T14:09:44.155Z,29.09
2023-05-05T14:19:46.515Z,30.26
2023-05-05T14:29:48.837Z,29.61
2023-05-05T14:39:51.122Z,29.94
2023-05-05T14:49:53.407Z,31.09
2023-05-05T14:59:55.874Z,31.68
2023-05-05T15:09:58.219Z,31.05
2023-05-05T15:20:00.505Z,33.08
2023-05-05T15:30:03.057Z,33.23
2023-05-05T15:40:05.985Z,32.97
2023-05-05T15:50:08.872Z,33.73
2023-05-05T16:00:11.704Z,33.98
2023-05-05T16:10:14.573Z,35.53
2023-05-05T16:20:19.031Z,35.05
2023-05-05T16:30:24.590Z,36.11
2023-05-05T16:40:26.911Z,36.72
2023-05-05T16:50:29.224Z,37.27
2023-05-05T17:00:31.627Z,38.10
2023-05-05T17:10:33.955Z,38.08
2023-05-05T17:20:36.649Z,39.32
2023-05-05T17:33:35.065Z,38.78
2023-05-05T17:43:37.402Z,41.20
2023-05-05T17:53:39.703Z,43.04
2023-05-05T18:03:42.279Z,44.11
2023-05-05T18:13:44.661Z,45.44
2023-05-05T18:23:47.008Z,46.69
2023-05-05T18:33:49.324Z,49.09
2023-05-05T18:43:51.617Z,50.39
2023-05-05T18:53:54.005Z,51.43
2023-05-05T19:03:56.485Z,52.45
2023-05-05T19:13:58.831Z,53.18
2023-05-05T19:24:01.160Z,54.38
2023-05-05T19:34:04.986Z,54.01
2023-05-05T19:44:07.284Z,54.25
2023-05-05T19:54:09.617Z,54.98
2023-05-05T20:04:12.021Z,54.99
2023-05-05T20:14:14.287Z,54.46
2023-05-05T20:24:17.478Z,54.31
2023-05-05T20:34:19.870Z,54.08
2023-05-05T20:44:22.253Z,56.03
2023-05-05T20:54:24.639Z,55.32
2023-05-05T21:04:27.178Z,54.50
2023-05-05T21:14:29.760Z,57.27
2023-05-05T21:24:32.136Z,56.60
2023-05-05T21:34:34.972Z,58.02
2023-05-05T21:44:37.263Z,58.44
2023-05-05T21:54:39.651Z,57.55
2023-05-05T22:10:13.008Z,57.58
2023-05-05T22:20:15.419Z,58.97
2023-05-05T22:30:17.770Z,57.96
2023-05-05T22:40:20.311Z,58.00
2023-05-05T22:50:22.778Z,57.10
2023-05-05T23:00:25.399Z,56.19
2023-05-05T23:10:29.340Z,55.44
2023-05-05T23:20:31.722Z,56.15
2023-05-05T23:30:34.136Z,55.51
2023-05-05T23:40:36.509Z,54.90
2023-05-05T23:50:38.916Z,55.83
